createdAt,value
2016-03-21T00:00:32.192Z,0
2016-03-21T00:01:32.960Z,0
2016-03-21T00:02:32.041Z,0
2016-03-21T00:03:31.934Z,0
2016-03-21T00:04:31.734Z,0
2016-03-21T00:05:31.674Z,0
2016-03-21T00:06:32.129Z,0
2016-03-21T00:07:31.961Z,0
2016-03-21T00:08:32.213Z,0
2016-03-21T00:09:31.794Z,0
2016-03-21T00:10:31.922Z,0
2016-03-21T00:11:32.018Z,0
2016-03-21T00:12:31.583Z,0
2016-03-21T00:13:32.446Z,0
2016-03-21T00:14:31.526Z,0
2016-03-21T00:15:31.763Z,0
2016-03-21T00:16:31.329Z,0
2016-03-21T00:17:31.378Z,0
2016-03-21T00:18:31.818Z,0
2016-03-21T00:19:31.430Z,0
2016-03-21T00:20:31.965Z,0
2016-03-21T00:21:32.499Z,0
2016-03-21T00:22:45.004Z,0
2016-03-21T00:23:32.254Z,0
2016-03-21T00:24:30.990Z,0
2016-03-21T00:25:32.165Z,0
2016-03-21T00:26:31.308Z,0
2016-03-21T00:27:31.921Z,0
2016-03-21T00:28:31.095Z,0
2016-03-21T00:29:31.301Z,0
2016-03-21T00:30:31.334Z,0
2016-03-21T00:31:30.134Z,0
2016-03-21T00:32:30.981Z,0
2016-03-21T00:33:31.547Z,0
2016-03-21T00:34:30.908Z,0
2016-03-21T00:35:30.880Z,0
2016-03-21T00:36:31.257Z,0
2016-03-21T00:37:30.932Z,0
2016-03-21T00:38:30.856Z,0
2016-03-21T00:39:32.063Z,0
2016-03-21T00:40:30.784Z,0
2016-03-21T00:41:30.724Z,0
2016-03-21T00:42:32.086Z,0
2016-03-21T00:43:31.963Z,0
2016-03-21T00:44:30.622Z,0
2016-03-21T00:45:30.797Z,0
2016-03-21T00:46:32.112Z,0
2016-03-21T00:47:30.646Z,0
2016-03-21T00:48:31.399Z,0
2016-03-21T00:49:31.480Z,0
2016-03-21T00:50:30.545Z,0
2016-03-21T00:51:30.501Z,0
2016-03-21T00:52:31.362Z,0
2016-03-21T00:53:31.350Z,0
2016-03-21T00:54:30.774Z,0
2016-03-21T00:55:30.387Z,0
2016-03-21T00:56:30.749Z,0
2016-03-21T00:57:30.736Z,0
2016-03-21T00:58:30.332Z,0
2016-03-21T00:59:30.632Z,0
2016-03-21T01:00:30.947Z,0
2016-03-21T01:01:30.200Z,0
2016-03-21T01:02:31.030Z,0
2016-03-21T01:03:31.392Z,0
2016-03-21T01:04:30.645Z,0
2016-03-21T01:05:29.429Z,0
2016-03-21T01:06:30.416Z,0
2016-03-21T01:07:30.091Z,0
2016-03-21T01:08:29.906Z,0
2016-03-21T01:09:30.127Z,0
2016-03-21T01:10:30.130Z,0
2016-03-21T01:11:30.039Z,0
2016-03-21T01:12:30.619Z,0
2016-03-21T01:13:30.357Z,0
2016-03-21T01:14:29.000Z,0
2016-03-21T01:15:30.346Z,0
2016-03-21T01:16:30.677Z,0
2016-03-21T01:17:30.165Z,0
2016-03-21T01:18:30.058Z,0
2016-03-21T01:19:30.154Z,0
2016-03-21T01:20:29.782Z,0
2016-03-21T01:21:31.004Z,0
2016-03-21T01:22:30.225Z,0
2016-03-21T01:23:29.977Z,0
2016-03-21T01:24:29.948Z,0
2016-03-21T01:25:29.562Z,0
2016-03-21T01:26:29.939Z,0
2016-03-21T01:27:30.426Z,0
2016-03-21T01:28:30.148Z,0
2016-03-21T01:29:29.525Z,0
2016-03-21T01:30:30.121Z,0
2016-03-21T01:31:29.453Z,0
2016-03-21T01:32:30.237Z,0
2016-03-21T01:33:30.239Z,0
2016-03-21T01:34:30.257Z,0
2016-03-21T01:35:29.401Z,0
2016-03-21T01:36:29.622Z,0
2016-03-21T01:37:29.453Z,0
2016-03-21T01:38:29.972Z,0
2016-03-21T01:39:30.005Z,0
2016-03-21T01:40:29.227Z,0
2016-03-21T01:41:29.636Z,0
2016-03-21T01:42:29.732Z,0
2016-03-21T01:43:29.125Z,0
2016-03-21T01:44:29.409Z,0
2016-03-21T01:45:29.099Z,0
2016-03-21T01:46:29.899Z,0
2016-03-21T01:47:30.652Z,0
2016-03-21T01:48:29.529Z,0
2016-03-21T01:49:28.969Z,0
2016-03-21T01:50:29.754Z,0
2016-03-21T01:51:29.225Z,0
2016-03-21T01:52:29.213Z,0
2016-03-21T01:53:28.856Z,0
2016-03-21T01:54:29.608Z,0
2016-03-21T01:55:28.846Z,0
2016-03-21T01:56:28.849Z,0
2016-03-21T01:57:28.819Z,0
2016-03-21T01:58:29.729Z,0
2016-03-21T01:59:29.138Z,0
2016-03-21T02:00:29.077Z,0
2016-03-21T02:01:29.345Z,0
2016-03-21T02:02:28.740Z,0
2016-03-21T02:03:29.445Z,0
2016-03-21T02:04:28.713Z,0
2016-03-21T02:05:29.590Z,0
2016-03-21T02:06:29.015Z,0
2016-03-21T02:07:28.503Z,0
2016-03-21T02:08:28.739Z,0
2016-03-21T02:09:29.009Z,0
2016-03-21T02:10:28.917Z,0
2016-03-21T02:11:28.419Z,0
2016-03-21T02:12:29.031Z,0
2016-03-21T02:13:28.472Z,0
2016-03-21T02:14:28.397Z,0
2016-03-21T02:15:28.275Z,0
2016-03-21T02:16:28.450Z,0
2016-03-21T02:17:28.561Z,0
2016-03-21T02:18:29.110Z,0
2016-03-21T02:19:28.348Z,0
2016-03-21T02:20:29.553Z,0
2016-03-21T02:21:28.494Z,0
2016-03-21T02:22:28.136Z,0
2016-03-21T02:23:28.108Z,0
2016-03-21T02:24:28.408Z,0
2016-03-21T02:25:28.894Z,0
2016-03-21T02:26:28.022Z,0
2016-03-21T02:27:28.166Z,0
2016-03-21T02:28:28.356Z,0
2016-03-21T02:29:29.280Z,0
2016-03-21T02:30:28.236Z,0
2016-03-21T02:31:27.990Z,0
2016-03-21T02:32:27.882Z,0
2016-03-21T02:33:27.994Z,0
2016-03-21T02:34:28.106Z,0
2016-03-21T02:35:28.437Z,0
2016-03-21T02:36:28.159Z,0
2016-03-21T02:37:27.709Z,0
2016-03-21T02:38:27.680Z,0
2016-03-21T02:39:28.823Z,0
2016-03-21T02:40:27.638Z,0
2016-03-21T02:41:28.267Z,0
2016-03-21T02:42:27.878Z,0
2016-03-21T02:43:27.615Z,0
2016-03-21T02:44:28.039Z,0
2016-03-21T02:45:28.323Z,0
2016-03-21T02:46:28.139Z,0
2016-03-21T02:47:27.594Z,0
2016-03-21T02:48:28.676Z,0
2016-03-21T02:49:25.772Z,0
2016-03-21T02:50:27.525Z,0
2016-03-21T02:51:28.355Z,0
2016-03-21T02:52:27.342Z,0
2016-03-21T02:53:27.642Z,0
2016-03-21T02:54:28.332Z,0
2016-03-21T02:55:28.850Z,0
2016-03-21T02:56:27.212Z,0
2016-03-21T02:57:27.403Z,0
2016-03-21T02:58:27.218Z,0
2016-03-21T02:59:27.174Z,0
2016-03-21T03:00:27.833Z,0
2016-03-21T03:01:27.413Z,0
2016-03-21T03:02:28.057Z,0
2016-03-21T03:03:27.060Z,0
2016-03-21T03:04:27.000Z,0
2016-03-21T03:05:27.284Z,0
2016-03-21T03:06:28.083Z,0
2016-03-21T03:07:27.304Z,0
2016-03-21T03:08:27.119Z,0
2016-03-21T03:09:27.371Z,0
2016-03-21T03:10:27.344Z,0
2016-03-21T03:11:26.830Z,0
2016-03-21T03:12:27.130Z,0
2016-03-21T03:13:27.163Z,0
2016-03-21T03:14:26.760Z,0
2016-03-21T03:15:26.700Z,0
2016-03-21T03:16:26.719Z,0
2016-03-21T03:17:26.846Z,0
2016-03-21T03:18:25.864Z,0
2016-03-21T03:19:27.946Z,0
2016-03-21T03:20:26.651Z,0
2016-03-21T03:21:27.373Z,0
2016-03-21T03:22:26.594Z,0
2016-03-21T03:23:27.378Z,0
2016-03-21T03:24:26.646Z,0
2016-03-21T03:25:26.820Z,0
2016-03-21T03:26:26.527Z,0
2016-03-21T03:27:26.404Z,0
2016-03-21T03:28:27.047Z,0
2016-03-21T03:29:26.378Z,0
2016-03-21T03:30:26.397Z,0
2016-03-21T03:31:26.775Z,0
2016-03-21T03:32:25.528Z,0
2016-03-21T03:33:26.312Z,0
2016-03-21T03:34:26.861Z,0
2016-03-21T03:35:26.254Z,0
2016-03-21T03:36:26.178Z,0
2016-03-21T03:37:26.822Z,0
2016-03-21T03:38:26.419Z,0
2016-03-21T03:39:26.452Z,0
2016-03-21T03:40:26.142Z,0
2016-03-21T03:41:26.972Z,0
2016-03-21T03:42:26.367Z,0
2016-03-21T03:43:26.400Z,0
2016-03-21T03:44:26.794Z,0
2016-03-21T03:45:26.000Z,0
2016-03-21T03:46:25.971Z,0
2016-03-21T03:47:26.286Z,0
2016-03-21T03:48:26.758Z,0
2016-03-21T03:49:26.183Z,0
2016-03-21T03:50:25.716Z,0
2016-03-21T03:51:26.203Z,0
2016-03-21T03:52:25.768Z,0
2016-03-21T03:53:25.771Z,0
2016-03-21T03:54:25.773Z,0
2016-03-21T03:55:26.074Z,0
2016-03-21T03:56:25.732Z,0
2016-03-21T03:57:25.704Z,0
2016-03-21T03:58:25.659Z,0
2016-03-21T03:59:25.646Z,0
2016-03-21T04:00:25.321Z,0
2016-03-21T04:01:26.105Z,0
2016-03-21T04:02:26.108Z,0
2016-03-21T04:03:25.611Z,0
2016-03-21T04:04:25.504Z,0
2016-03-21T04:05:26.647Z,0
2016-03-21T04:06:25.837Z,0
2016-03-21T04:07:26.247Z,0
2016-03-21T04:08:25.717Z,0
2016-03-21T04:09:25.548Z,0
2016-03-21T04:10:26.254Z,0
2016-03-21T04:11:25.414Z,0
2016-03-21T04:12:25.322Z,0
2016-03-21T04:13:26.091Z,0
2016-03-21T04:14:25.421Z,0
2016-03-21T04:15:25.596Z,0
2016-03-21T04:16:25.271Z,0
2016-03-21T04:17:25.804Z,0
2016-03-21T04:18:25.120Z,0
2016-03-21T04:19:27.263Z,0
2016-03-21T04:20:25.218Z,0
2016-03-21T04:21:25.127Z,0
2016-03-21T04:22:26.177Z,0
2016-03-21T04:23:25.415Z,0
2016-03-21T04:24:25.167Z,0
2016-03-21T04:25:25.326Z,0
2016-03-21T04:26:26.266Z,0
2016-03-21T04:27:24.956Z,0
2016-03-21T04:28:25.037Z,0
2016-03-21T04:29:25.024Z,0
2016-03-21T04:30:25.526Z,0
2016-03-21T04:31:26.795Z,0
2016-03-21T04:32:24.813Z,0
2016-03-21T04:33:26.582Z,0
2016-03-21T04:34:25.115Z,0
2016-03-21T04:35:26.025Z,0
2016-03-21T04:36:24.730Z,0
2016-03-21T04:37:25.873Z,0
2016-03-21T04:38:25.720Z,0
2016-03-21T04:39:25.441Z,0
2016-03-21T04:40:24.757Z,0
2016-03-21T04:41:25.838Z,0
2016-03-21T04:42:24.512Z,0
2016-03-21T04:43:24.811Z,0
2016-03-21T04:44:24.580Z,0
2016-03-21T04:45:24.489Z,0
2016-03-21T04:46:24.554Z,0
2016-03-21T04:47:24.510Z,0
2016-03-21T04:48:24.357Z,0
2016-03-21T04:49:24.735Z,0
2016-03-21T04:50:24.346Z,0
2016-03-21T04:51:24.427Z,0
2016-03-21T04:52:24.289Z,0
2016-03-21T04:53:24.291Z,0
2016-03-21T04:54:24.263Z,0
2016-03-21T04:55:24.515Z,0
2016-03-21T04:56:24.174Z,0
2016-03-21T04:57:24.381Z,0
2016-03-21T04:58:24.179Z,0
2016-03-21T04:59:24.057Z,0
2016-03-21T05:00:24.076Z,0
2016-03-21T05:01:24.517Z,0
2016-03-21T05:02:24.269Z,0
2016-03-21T05:03:25.913Z,0
2016-03-21T05:04:23.946Z,0
2016-03-21T05:05:23.948Z,0
2016-03-21T05:06:24.187Z,0
2016-03-21T05:07:24.189Z,0
2016-03-21T05:08:23.864Z,0
2016-03-21T05:09:23.803Z,0
2016-03-21T05:10:23.978Z,0
2016-03-21T05:11:23.825Z,0
2016-03-21T05:12:23.781Z,0
2016-03-21T05:13:23.252Z,0
2016-03-21T05:14:23.677Z,0
2016-03-21T05:15:23.772Z,0
2016-03-21T05:16:23.650Z,0
2016-03-21T05:17:23.887Z,0
2016-03-21T05:18:24.984Z,0
2016-03-21T05:19:23.986Z,0
2016-03-21T05:20:23.645Z,0
2016-03-21T05:21:23.507Z,0
2016-03-21T05:22:23.510Z,0
2016-03-21T05:23:23.607Z,0
2016-03-21T05:24:23.468Z,0
2016-03-21T05:25:24.519Z,0
2016-03-21T05:26:23.599Z,0
2016-03-21T05:27:24.226Z,0
2016-03-21T05:28:23.370Z,0
2016-03-21T05:29:23.404Z,0
2016-03-21T05:30:23.313Z,0
2016-03-21T05:31:23.597Z,0
2016-03-21T05:32:23.256Z,0
2016-03-21T05:33:23.196Z,0
2016-03-21T05:34:23.324Z,0
2016-03-21T05:35:23.217Z,0
2016-03-21T05:36:23.157Z,0
2016-03-21T05:37:23.410Z,0
2016-03-21T05:38:23.256Z,0
2016-03-21T05:39:23.087Z,0
2016-03-21T05:40:23.075Z,0
2016-03-21T05:41:23.670Z,0
2016-03-21T05:42:23.080Z,0
2016-03-21T05:43:37.191Z,0
2016-03-21T05:44:22.945Z,0
2016-03-21T05:45:22.900Z,0
2016-03-21T05:46:22.872Z,0
2016-03-21T05:47:22.905Z,0
2016-03-21T05:48:22.800Z,0
2016-03-21T05:49:23.099Z,0
2016-03-21T05:50:22.929Z,0
2016-03-21T05:51:22.823Z,5
2016-03-21T05:52:22.747Z,5
2016-03-21T05:53:22.703Z,5
2016-03-21T05:54:22.690Z,5
2016-03-21T05:55:22.974Z,5
2016-03-21T05:56:22.602Z,5
2016-03-21T05:57:22.698Z,5
2016-03-21T05:58:22.623Z,5
2016-03-21T05:59:22.579Z,5
2016-03-21T06:00:22.628Z,5
2016-03-21T06:01:22.865Z,5
2016-03-21T06:02:22.523Z,5
2016-03-21T06:03:22.637Z,5
2016-03-21T06:04:22.436Z,5
2016-03-21T06:05:22.454Z,5
2016-03-21T06:06:22.394Z,5
2016-03-21T06:07:22.850Z,5
2016-03-21T06:08:22.462Z,10
2016-03-21T06:09:22.292Z,10
2016-03-21T06:10:22.265Z,10
2016-03-21T06:11:22.236Z,10
2016-03-21T06:12:22.676Z,10
2016-03-21T06:13:22.553Z,10
2016-03-21T06:14:22.291Z,10
2016-03-21T06:15:22.309Z,10
2016-03-21T06:16:22.358Z,10
2016-03-21T06:17:22.127Z,10
2016-03-21T06:18:22.067Z,10
2016-03-21T06:19:22.413Z,10
2016-03-21T06:20:22.104Z,15
2016-03-21T06:21:21.966Z,15
2016-03-21T06:22:22.360Z,15
2016-03-21T06:23:21.971Z,15
2016-03-21T06:24:22.083Z,15
2016-03-21T06:25:22.289Z,15
2016-03-21T06:26:21.902Z,20
2016-03-21T06:27:21.810Z,20
2016-03-21T06:28:21.812Z,20
2016-03-21T06:29:21.910Z,20
2016-03-21T06:30:21.787Z,20
2016-03-21T06:31:21.899Z,20
2016-03-21T06:32:21.699Z,20
2016-03-21T06:33:21.701Z,20
2016-03-21T06:34:21.610Z,20
2016-03-21T06:35:21.690Z,20
2016-03-21T06:36:21.678Z,20
2016-03-21T06:37:21.946Z,20
2016-03-21T06:38:21.590Z,20
2016-03-21T06:39:21.514Z,25
2016-03-21T06:40:21.376Z,25
2016-03-21T06:41:21.629Z,20
2016-03-21T06:42:21.522Z,20
2016-03-21T06:43:21.822Z,20
2016-03-21T06:44:35.262Z,20
2016-03-21T06:45:21.499Z,25
2016-03-21T06:46:21.392Z,20
2016-03-21T06:47:21.317Z,20
2016-03-21T06:48:21.570Z,20
2016-03-21T06:49:21.588Z,20
2016-03-21T06:50:21.294Z,20
2016-03-21T06:51:21.359Z,20
2016-03-21T06:52:21.222Z,20
2016-03-21T06:53:21.208Z,25
2016-03-21T06:54:21.180Z,20
2016-03-21T06:55:21.308Z,20
2016-03-21T06:56:21.138Z,20
2016-03-21T06:57:21.218Z,20
2016-03-21T06:58:21.535Z,25
2016-03-21T06:59:21.084Z,25
2016-03-21T07:00:21.118Z,25
2016-03-21T07:01:21.292Z,25
2016-03-21T07:02:20.967Z,25
2016-03-21T07:03:21.001Z,25
2016-03-21T07:04:21.268Z,25
2016-03-21T07:05:20.913Z,25
2016-03-21T07:06:20.853Z,25
2016-03-21T07:07:21.144Z,25
2016-03-21T07:08:20.834Z,25
2016-03-21T07:09:20.884Z,25
2016-03-21T07:10:20.762Z,30
2016-03-21T07:11:20.889Z,25
2016-03-21T07:12:20.783Z,25
2016-03-21T07:13:20.989Z,25
2016-03-21T07:14:20.663Z,20
2016-03-21T07:15:20.666Z,25
2016-03-21T07:16:20.621Z,25
2016-03-21T07:17:20.625Z,25
2016-03-21T07:18:20.720Z,25
2016-03-21T07:19:20.848Z,25
2016-03-21T07:20:20.867Z,25
2016-03-21T07:21:20.682Z,25
2016-03-21T07:22:20.497Z,20
2016-03-21T07:23:20.515Z,20
2016-03-21T07:24:20.425Z,20
2016-03-21T07:25:20.646Z,25
2016-03-21T07:26:20.366Z,25
2016-03-21T07:27:20.526Z,25
2016-03-21T07:28:21.013Z,25
2016-03-21T07:29:20.391Z,30
2016-03-21T07:30:20.331Z,30
2016-03-21T07:31:20.506Z,25
2016-03-21T07:32:20.399Z,25
2016-03-21T07:33:20.417Z,30
2016-03-21T07:34:33.935Z,30
2016-03-21T07:35:20.157Z,35
2016-03-21T07:36:20.159Z,35
2016-03-21T07:37:20.428Z,35
2016-03-21T07:38:20.306Z,35
2016-03-21T07:39:20.043Z,35
2016-03-21T07:40:20.029Z,40
2016-03-21T07:41:20.048Z,40
2016-03-21T07:42:19.942Z,45
2016-03-21T07:43:20.256Z,50
2016-03-21T07:44:19.915Z,50
2016-03-21T07:45:19.895Z,50
2016-03-21T07:46:19.884Z,55
2016-03-21T07:47:19.809Z,50
2016-03-21T07:48:19.752Z,40
2016-03-21T07:49:20.225Z,35
2016-03-21T07:50:19.689Z,30
2016-03-21T07:51:19.826Z,30
2016-03-21T07:52:19.714Z,25
2016-03-21T07:53:19.697Z,15
2016-03-21T07:54:19.585Z,15
2016-03-21T07:55:19.834Z,15
2016-03-21T07:56:20.616Z,15
2016-03-21T07:57:19.633Z,15
2016-03-21T07:58:19.476Z,15
2016-03-21T07:59:19.477Z,30
2016-03-21T08:00:19.417Z,40
2016-03-21T08:01:19.263Z,45
2016-03-21T08:02:19.483Z,50
2016-03-21T08:03:19.642Z,50
2016-03-21T08:04:19.378Z,50
2016-03-21T08:05:19.255Z,45
2016-03-21T08:06:19.366Z,45
2016-03-21T08:07:19.558Z,45
2016-03-21T08:08:19.279Z,45
2016-03-21T08:09:19.172Z,45
2016-03-21T08:10:19.377Z,40
2016-03-21T08:11:19.193Z,45
2016-03-21T08:12:19.305Z,45
2016-03-21T08:13:19.667Z,50
2016-03-21T08:14:19.124Z,50
2016-03-21T08:15:18.204Z,45
2016-03-21T08:16:19.143Z,35
2016-03-21T08:17:18.990Z,30
2016-03-21T08:18:21.993Z,30
2016-03-21T08:19:19.231Z,30
2016-03-21T08:20:19.139Z,20
2016-03-21T08:21:19.001Z,15
2016-03-21T08:22:18.895Z,15
2016-03-21T08:23:18.084Z,15
2016-03-21T08:24:18.869Z,15
2016-03-21T08:25:19.153Z,15
2016-03-21T08:26:19.718Z,15
2016-03-21T08:27:17.970Z,20
2016-03-21T08:28:18.755Z,25
2016-03-21T08:29:18.725Z,25
2016-03-21T08:30:18.775Z,20
2016-03-21T08:31:19.418Z,25
2016-03-21T08:32:18.641Z,25
2016-03-21T08:33:18.643Z,25
2016-03-21T08:34:18.536Z,35
2016-03-21T08:35:18.602Z,35
2016-03-21T08:36:18.558Z,30
2016-03-21T08:37:18.763Z,35
2016-03-21T08:38:18.546Z,35
2016-03-21T08:39:18.378Z,40
2016-03-21T08:40:18.505Z,45
2016-03-21T08:41:18.446Z,50
2016-03-21T08:42:18.354Z,50
2016-03-21T08:43:18.716Z,50
2016-03-21T08:44:18.344Z,55
2016-03-21T08:45:18.456Z,60
2016-03-21T08:46:18.304Z,65
2016-03-21T08:47:18.181Z,60
2016-03-21T08:48:18.215Z,60
2016-03-21T08:49:18.670Z,55
2016-03-21T08:50:18.235Z,50
2016-03-21T08:51:18.473Z,50
2016-03-21T08:52:18.178Z,55
2016-03-21T08:53:18.134Z,50
2016-03-21T08:54:18.059Z,45
2016-03-21T08:55:18.498Z,40
2016-03-21T08:56:18.065Z,40
2016-03-21T08:57:18.051Z,45
2016-03-21T08:58:18.007Z,45
2016-03-21T08:59:18.197Z,45
2016-03-21T09:00:31.684Z,50
2016-03-21T09:01:18.375Z,55
2016-03-21T09:02:17.892Z,60
2016-03-21T09:03:17.974Z,60
2016-03-21T09:04:18.366Z,65
2016-03-21T09:05:17.869Z,65
2016-03-21T09:06:18.185Z,70
2016-03-21T09:07:17.735Z,70
2016-03-21T09:08:17.988Z,70
2016-03-21T09:09:17.786Z,75
2016-03-21T09:10:17.852Z,70
2016-03-21T09:11:17.917Z,65
2016-03-21T09:12:18.248Z,70
2016-03-21T09:13:17.687Z,80
2016-03-21T09:14:17.597Z,85
2016-03-21T09:15:17.606Z,85
2016-03-21T09:16:18.094Z,85
2016-03-21T09:17:18.564Z,85
2016-03-21T09:18:17.756Z,85
2016-03-21T09:19:20.555Z,80
2016-03-21T09:20:17.557Z,80
2016-03-21T09:21:17.982Z,80
2016-03-21T09:22:17.641Z,80
2016-03-21T09:23:17.768Z,85
2016-03-21T09:24:18.147Z,85
2016-03-21T09:25:17.508Z,85
2016-03-21T09:26:17.917Z,75
2016-03-21T09:27:17.357Z,70
2016-03-21T09:28:17.438Z,75
2016-03-21T09:29:17.394Z,70
2016-03-21T09:30:17.724Z,75
2016-03-21T09:31:17.118Z,75
2016-03-21T09:32:17.246Z,85
2016-03-21T09:33:17.685Z,75
2016-03-21T09:34:20.205Z,75
2016-03-21T09:35:17.785Z,80
2016-03-21T09:36:17.460Z,80
2016-03-21T09:37:17.009Z,75
2016-03-21T09:38:16.996Z,80
2016-03-21T09:39:16.999Z,80
2016-03-21T09:40:17.017Z,80
2016-03-21T09:41:17.426Z,75
2016-03-21T09:42:17.553Z,70
2016-03-21T09:43:17.150Z,70
2016-03-21T09:44:16.903Z,75
2016-03-21T09:45:16.875Z,80
2016-03-21T09:46:17.221Z,80
2016-03-21T09:47:16.802Z,75
2016-03-21T09:48:17.836Z,75
2016-03-21T09:49:17.354Z,75
2016-03-21T09:50:16.888Z,85
2016-03-21T09:51:16.906Z,80
2016-03-21T09:52:16.737Z,85
2016-03-21T09:53:30.928Z,85
2016-03-21T09:54:17.899Z,85
2016-03-21T09:55:17.464Z,80
2016-03-21T09:56:16.544Z,85
2016-03-21T09:57:17.282Z,85
2016-03-21T09:58:16.862Z,80
2016-03-21T09:59:17.413Z,85
2016-03-21T10:00:16.790Z,80
2016-03-21T10:01:16.557Z,75
2016-03-21T10:02:16.701Z,75
2016-03-21T10:03:16.563Z,75
2016-03-21T10:04:16.426Z,70
2016-03-21T10:05:16.912Z,80
2016-03-21T10:06:16.916Z,90
2016-03-21T10:07:16.591Z,90
2016-03-21T10:08:16.484Z,90
2016-03-21T10:09:16.206Z,85
2016-03-21T10:10:16.740Z,90
2016-03-21T10:11:18.071Z,90
2016-03-21T10:12:17.260Z,95
2016-03-21T10:13:16.294Z,90
2016-03-21T10:14:30.531Z,90
2016-03-21T10:15:16.659Z,90
2016-03-21T10:16:16.959Z,95
2016-03-21T10:17:16.040Z,95
2016-03-21T10:18:16.620Z,100
2016-03-21T10:19:16.764Z,105
2016-03-21T10:20:16.626Z,110
2016-03-21T10:21:16.598Z,110
2016-03-21T10:22:17.615Z,110
2016-03-21T10:23:16.368Z,110
2016-03-21T10:24:16.887Z,105
2016-03-21T10:25:16.421Z,105
2016-03-21T10:26:16.220Z,105
2016-03-21T10:27:16.332Z,110
2016-03-21T10:28:15.819Z,110
2016-03-21T10:29:16.103Z,110
2016-03-21T10:30:16.105Z,110
2016-03-21T10:31:16.952Z,105
2016-03-21T10:32:15.049Z,100
2016-03-21T10:33:15.769Z,90
2016-03-21T10:34:15.711Z,75
2016-03-21T10:35:16.572Z,70
2016-03-21T10:36:15.966Z,65
2016-03-21T10:37:47.016Z,55
2016-03-21T10:38:15.596Z,55
2016-03-21T10:39:15.943Z,45
2016-03-21T10:40:15.727Z,45
2016-03-21T10:41:15.511Z,40
2016-03-21T10:42:15.794Z,35
2016-03-21T10:43:15.562Z,35
2016-03-21T10:44:16.799Z,30
2016-03-21T10:45:15.630Z,30
2016-03-21T10:46:15.649Z,30
2016-03-21T10:47:15.449Z,30
2016-03-21T10:48:15.826Z,35
2016-03-21T10:49:16.360Z,40
2016-03-21T10:50:15.347Z,45
2016-03-21T10:51:15.460Z,50
2016-03-21T10:52:15.446Z,50
2016-03-21T10:53:15.339Z,45
2016-03-21T10:54:15.717Z,50
2016-03-21T10:55:16.111Z,55
2016-03-21T10:56:15.347Z,60
2016-03-21T10:57:15.335Z,65
2016-03-21T10:58:15.119Z,70
2016-03-21T10:59:15.043Z,75
2016-03-21T11:00:15.780Z,80
2016-03-21T11:01:15.048Z,80
2016-03-21T11:02:15.036Z,85
2016-03-21T11:03:14.975Z,85
2016-03-21T11:04:15.088Z,85
2016-03-21T11:05:14.934Z,85
2016-03-21T11:06:15.343Z,85
2016-03-21T11:07:28.728Z,85
2016-03-21T11:10:14.925Z,95
2016-03-21T11:11:14.834Z,95
2016-03-21T11:12:15.117Z,95
2016-03-21T11:13:15.011Z,95
2016-03-21T11:14:14.779Z,95
2016-03-21T11:15:14.735Z,95
2016-03-21T11:16:14.816Z,95
2016-03-21T11:17:14.584Z,95
2016-03-21T11:18:15.179Z,100
2016-03-21T11:19:14.683Z,95
2016-03-21T11:20:17.810Z,95
2016-03-21T11:21:14.673Z,95
2016-03-21T11:22:14.488Z,100
2016-03-21T11:23:14.928Z,100
2016-03-21T11:24:14.759Z,100
2016-03-21T11:25:14.402Z,95
2016-03-21T11:27:27.298Z,95
2016-03-21T11:28:14.738Z,95
2016-03-21T11:29:15.445Z,95
2016-03-21T11:30:13.806Z,95
2016-03-21T11:31:15.822Z,95
2016-03-21T11:32:15.591Z,95
2016-03-21T11:33:14.704Z,95
2016-03-21T11:34:14.483Z,95
2016-03-21T11:35:18.151Z,95
2016-03-21T11:36:15.030Z,100
2016-03-21T11:37:15.267Z,105
2016-03-21T11:38:14.457Z,105
2016-03-21T11:39:14.287Z,110
2016-03-21T11:40:14.040Z,115
2016-03-21T11:41:14.777Z,115
2016-03-21T11:42:15.952Z,120
2016-03-21T11:43:14.689Z,120
2016-03-21T11:44:13.723Z,120
2016-03-21T11:45:14.647Z,115
2016-03-21T11:46:13.947Z,120
2016-03-21T11:47:15.528Z,120
2016-03-21T11:48:15.092Z,115
2016-03-21T11:49:14.080Z,115
2016-03-21T11:50:14.083Z,115
2016-03-21T11:51:13.819Z,115
2016-03-21T11:52:13.885Z,120
2016-03-21T11:53:13.747Z,115
2016-03-21T11:54:14.124Z,115
2016-03-21T11:55:13.830Z,115
2016-03-21T11:56:13.989Z,115
2016-03-21T11:57:13.727Z,115
2016-03-21T11:58:13.744Z,120
2016-03-21T11:59:13.638Z,125
2016-03-21T12:00:14.797Z,130
2016-03-21T12:01:13.784Z,130
2016-03-21T12:02:13.788Z,135
2016-03-21T12:03:13.665Z,140
2016-03-21T12:04:13.604Z,140
2016-03-21T12:05:13.576Z,130
2016-03-21T12:06:13.845Z,110
2016-03-21T12:07:13.429Z,110
2016-03-21T12:08:13.792Z,100
2016-03-21T12:09:13.622Z,95
2016-03-21T12:11:13.330Z,85
2016-03-21T12:12:14.052Z,80
2016-03-21T12:13:13.446Z,85
2016-03-21T12:14:12.666Z,90
2016-03-21T12:15:13.951Z,110
2016-03-21T12:16:13.313Z,125
2016-03-21T12:17:13.425Z,125
2016-03-21T12:18:13.616Z,125
2016-03-21T12:19:13.305Z,110
2016-03-21T12:20:13.260Z,95
2016-03-21T12:21:30.421Z,85
2016-03-21T12:22:13.516Z,85
2016-03-21T12:23:13.675Z,75
2016-03-21T12:24:14.725Z,60
2016-03-21T12:25:13.696Z,50
2016-03-21T12:26:13.995Z,40
2016-03-21T12:27:13.421Z,40
2016-03-21T12:28:13.486Z,45
2016-03-21T12:29:26.973Z,60
2016-03-21T12:30:14.460Z,70
2016-03-21T12:31:13.509Z,85
2016-03-21T12:32:14.230Z,95
2016-03-21T12:33:16.655Z,105
2016-03-21T12:34:27.142Z,110
2016-03-21T12:35:13.239Z,115
2016-03-21T12:36:13.336Z,110
2016-03-21T12:37:13.042Z,110
2016-03-21T12:38:12.419Z,115
2016-03-21T12:39:13.531Z,105
2016-03-21T12:40:14.236Z,105
2016-03-21T12:41:13.192Z,110
2016-03-21T12:42:14.789Z,115
2016-03-21T12:43:14.166Z,120
2016-03-21T12:44:12.325Z,120
2016-03-21T12:45:12.594Z,130
2016-03-21T12:46:12.815Z,135
2016-03-21T12:47:12.552Z,330
2016-03-21T12:48:13.633Z,130
2016-03-21T12:49:11.040Z,130
2016-03-21T12:50:12.607Z,130
2016-03-21T12:51:12.312Z,120
2016-03-21T12:52:13.456Z,110
2016-03-21T12:53:11.896Z,95
2016-03-21T12:54:13.243Z,90
2016-03-21T12:55:14.105Z,85
2016-03-21T12:56:13.076Z,85
2016-03-21T12:57:12.532Z,75
2016-03-21T12:58:12.551Z,75
2016-03-21T12:59:12.647Z,70
2016-03-21T13:00:13.275Z,70
2016-03-21T13:01:12.403Z,70
2016-03-21T13:03:12.752Z,70
2016-03-21T13:04:12.333Z,70
2016-03-21T13:05:12.210Z,65
2016-03-21T13:06:12.620Z,65
2016-03-21T13:07:12.689Z,65
2016-03-21T13:08:12.759Z,60
2016-03-21T13:09:12.153Z,60
2016-03-21T13:11:12.002Z,60
2016-03-21T13:12:13.113Z,55
2016-03-21T13:13:12.069Z,55
2016-03-21T13:14:12.026Z,50
2016-03-21T13:15:12.918Z,50
2016-03-21T13:16:12.360Z,50
2016-03-21T13:17:11.877Z,50
2016-03-21T13:18:12.458Z,50
2016-03-21T13:19:11.976Z,45
2016-03-21T13:20:11.726Z,45
2016-03-21T13:21:11.120Z,45
2016-03-21T13:22:11.044Z,45
2016-03-21T13:23:12.503Z,45
2016-03-21T13:24:11.909Z,45
2016-03-21T13:25:12.383Z,45
2016-03-21T13:26:12.104Z,45
2016-03-21T13:27:11.651Z,40
2016-03-21T13:28:11.904Z,40
2016-03-21T13:29:11.484Z,40
2016-03-21T13:30:12.584Z,40
2016-03-21T13:31:11.569Z,40
2016-03-21T13:32:11.602Z,40
2016-03-21T13:33:12.311Z,40
2016-03-21T13:34:14.688Z,40
